createdAt,value
2022-10-23T00:01:22.127Z,14.50
2022-10-23T00:03:51.644Z,13.50
2022-10-23T00:06:18.707Z,12.50
2022-10-23T00:08:47.138Z,13.00
2022-10-23T00:11:15.652Z,12.25
2022-10-23T00:13:42.744Z,13.00
2022-10-23T00:16:09.755Z,13.00
2022-10-23T00:18:37.216Z,13.50
2022-10-23T00:21:04.594Z,13.25
2022-10-23T00:23:31.531Z,13.25
2022-10-23T00:25:58.657Z,13.00
2022-10-23T00:28:25.676Z,15.00
2022-10-23T00:30:52.740Z,13.00
2022-10-23T00:33:19.721Z,14.25
2022-10-23T00:35:46.732Z,13.50
2022-10-23T00:38:13.768Z,13.25
2022-10-23T00:40:42.546Z,15.00
2022-10-23T00:43:20.423Z,13.50
2022-10-23T00:45:47.593Z,12.00
2022-10-23T00:48:14.861Z,15.00
2022-10-23T00:50:41.914Z,12.00
2022-10-23T00:53:08.955Z,11.75
2022-10-23T00:55:35.964Z,14.50
2022-10-23T00:58:02.935Z,11.75
2022-10-23T01:00:32.362Z,13.75
2022-10-23T01:02:59.318Z,13.00
2022-10-23T01:05:30.707Z,13.00
2022-10-23T01:08:26.241Z,14.50
2022-10-23T01:11:16.604Z,12.00
2022-10-23T01:14:15.287Z,13.25
2022-10-23T01:17:14.756Z,13.00
2022-10-23T01:20:20.566Z,12.00
2022-10-23T01:23:28.511Z,14.25
2022-10-23T01:26:23.363Z,12.00
2022-10-23T01:29:16.218Z,11.25
2022-10-23T01:31:45.772Z,14.25
2022-10-23T01:34:15.017Z,12.00
2022-10-23T01:36:42.597Z,15.00
2022-10-23T01:39:12.574Z,12.75
2022-10-23T01:42:00.217Z,12.00
2022-10-23T01:44:42.368Z,12.25
2022-10-23T01:47:10.169Z,13.75
2022-10-23T01:49:37.702Z,14.50
2022-10-23T01:52:05.910Z,13.25
2022-10-23T01:54:36.079Z,13.00
2022-10-23T01:57:03.078Z,11.00
2022-10-23T01:59:35.616Z,13.00
2022-10-23T02:02:02.710Z,14.75
2022-10-23T02:04:46.735Z,12.00
2022-10-23T02:07:13.685Z,12.75
2022-10-23T02:09:40.626Z,12.00
2022-10-23T02:12:14.818Z,13.25
2022-10-23T02:14:51.359Z,10.00
2022-10-23T02:17:24.912Z,13.25
2022-10-23T02:20:16.631Z,11.00
2022-10-23T02:22:56.094Z,11.00
2022-10-23T02:25:28.767Z,12.00
2022-10-23T02:27:56.652Z,13.00
2022-10-23T02:30:23.604Z,10.50
2022-10-23T02:32:54.296Z,11.75
2022-10-23T02:35:22.898Z,12.75
2022-10-23T02:37:54.755Z,13.00
2022-10-23T02:40:21.691Z,10.75
2022-10-23T02:42:54.490Z,11.25
2022-10-23T02:45:37.665Z,11.50
2022-10-23T02:48:17.973Z,12.50
2022-10-23T02:50:54.613Z,11.00
2022-10-23T02:53:33.116Z,12.50
2022-10-23T02:56:41.529Z,12.75
2022-10-23T02:59:37.794Z,13.25
2022-10-23T03:02:09.679Z,10.75
2022-10-23T03:04:36.831Z,10.50
2022-10-23T03:07:03.773Z,11.00
2022-10-23T03:09:31.413Z,11.75
2022-10-23T03:11:58.380Z,11.25
2022-10-23T03:14:25.338Z,12.00
2022-10-23T03:16:52.306Z,11.00
2022-10-23T03:19:19.236Z,11.50
2022-10-23T03:21:46.211Z,12.00
2022-10-23T03:24:13.236Z,12.00
2022-10-23T03:26:40.156Z,12.00
2022-10-23T03:29:07.211Z,12.50
2022-10-23T03:31:34.185Z,12.25
2022-10-23T03:34:04.017Z,11.00
2022-10-23T03:36:33.198Z,11.50
2022-10-23T03:39:00.550Z,10.50
2022-10-23T03:41:27.501Z,13.25
2022-10-23T03:43:54.537Z,12.00
2022-10-23T03:46:21.541Z,10.00
2022-10-23T03:48:48.496Z,10.50
2022-10-23T03:51:15.508Z,10.00
2022-10-23T03:53:42.452Z,11.00
2022-10-23T03:56:09.422Z,11.00
2022-10-23T03:58:36.517Z,11.00
2022-10-23T04:01:03.575Z,11.00
2022-10-23T04:03:30.567Z,11.75
2022-10-23T04:05:57.531Z,11.00
2022-10-23T04:08:24.483Z,11.75
2022-10-23T04:10:51.440Z,10.75
2022-10-23T04:13:18.375Z,8.00
2022-10-23T04:15:49.645Z,10.50
2022-10-23T04:18:16.871Z,10.25
2022-10-23T04:20:43.928Z,12.00
2022-10-23T04:23:10.899Z,9.00
2022-10-23T04:25:37.880Z,10.00
2022-10-23T04:28:04.991Z,10.25
2022-10-23T04:30:31.953Z,10.50
2022-10-23T04:32:59.006Z,9.00
2022-10-23T04:35:26.117Z,10.25
2022-10-23T04:37:53.109Z,10.00
2022-10-23T04:40:20.113Z,10.25
2022-10-23T04:42:47.061Z,10.25
2022-10-23T04:45:14.016Z,10.00
2022-10-23T04:47:40.965Z,11.50
2022-10-23T04:50:08.167Z,10.00
2022-10-23T04:52:35.139Z,11.25
2022-10-23T04:55:02.106Z,10.75
2022-10-23T04:57:29.077Z,9.50
2022-10-23T04:59:56.035Z,9.25
2022-10-23T05:02:24.607Z,9.00
2022-10-23T05:04:51.579Z,9.50
2022-10-23T05:07:18.514Z,8.00
2022-10-23T05:09:45.497Z,11.00
2022-10-23T05:12:12.473Z,8.50
2022-10-23T05:14:39.387Z,9.50
2022-10-23T05:17:16.739Z,7.25
2022-10-23T05:19:57.769Z,9.00
2022-10-23T05:22:26.336Z,9.25
2022-10-23T05:24:54.134Z,9.50
2022-10-23T05:27:21.104Z,9.00
2022-10-23T05:29:48.034Z,9.75
2022-10-23T05:32:15.262Z,10.75
2022-10-23T05:34:42.224Z,8.00
2022-10-23T05:37:10.923Z,10.50
2022-10-23T05:39:37.888Z,9.00
2022-10-23T05:42:04.971Z,11.00
2022-10-23T05:44:31.922Z,9.00
2022-10-23T05:46:58.935Z,8.00
2022-10-23T05:49:26.242Z,10.00
2022-10-23T05:51:53.239Z,10.00
2022-10-23T05:54:20.196Z,10.50
2022-10-23T05:56:47.172Z,8.50
2022-10-23T05:59:15.924Z,10.00
2022-10-23T06:01:44.836Z,9.00
2022-10-23T06:04:11.885Z,7.50
2022-10-23T06:06:38.836Z,10.00
2022-10-23T06:09:05.751Z,7.00
2022-10-23T06:11:32.729Z,7.50
2022-10-23T06:14:01.311Z,9.00
2022-10-23T06:16:29.117Z,5.25
2022-10-23T06:18:57.696Z,9.25
2022-10-23T06:21:24.939Z,8.00
2022-10-23T06:23:51.994Z,8.75
2022-10-23T06:26:19.603Z,8.00
2022-10-23T06:28:46.585Z,8.00
2022-10-23T06:31:14.795Z,9.00
2022-10-23T06:33:41.965Z,8.00
2022-10-23T06:36:10.862Z,7.25
2022-10-23T06:38:40.706Z,9.25
2022-10-23T06:41:20.593Z,9.75
2022-10-23T06:43:51.422Z,9.50
2022-10-23T06:46:19.044Z,8.75
2022-10-23T06:48:46.049Z,8.25
2022-10-23T06:51:15.074Z,9.00
2022-10-23T06:53:42.263Z,9.00
2022-10-23T06:56:09.340Z,8.00
2022-10-23T06:58:36.955Z,9.00
2022-10-23T07:01:05.676Z,9.00
2022-10-23T07:03:32.905Z,6.25
2022-10-23T07:06:06.799Z,9.00
2022-10-23T07:08:33.820Z,9.00
2022-10-23T07:11:05.576Z,8.00
2022-10-23T07:13:33.940Z,9.00
2022-10-23T07:16:10.368Z,8.00
2022-10-23T07:18:37.310Z,9.50
2022-10-23T07:21:04.365Z,9.25
2022-10-23T07:23:31.304Z,9.75
2022-10-23T07:26:09.850Z,8.00
2022-10-23T07:28:36.922Z,7.75
2022-10-23T07:31:03.953Z,7.25
2022-10-23T07:33:30.888Z,7.00
2022-10-23T07:35:57.863Z,8.50
2022-10-23T07:38:24.829Z,8.00
2022-10-23T07:40:51.808Z,8.75
2022-10-23T07:43:21.029Z,8.00
2022-10-23T07:45:49.024Z,8.00
2022-10-23T07:48:16.439Z,7.00
2022-10-23T07:50:43.491Z,10.00
2022-10-23T07:53:20.968Z,8.00
2022-10-23T07:56:00.383Z,9.00
2022-10-23T07:58:27.561Z,9.00
2022-10-23T08:00:59.365Z,7.00
2022-10-23T08:03:27.303Z,7.25
2022-10-23T08:05:54.588Z,7.00
2022-10-23T08:08:25.179Z,7.25
2022-10-23T08:10:53.056Z,7.25
2022-10-23T08:13:22.689Z,8.00
2022-10-23T08:15:51.146Z,9.25
2022-10-23T08:18:18.199Z,8.25
2022-10-23T08:20:46.603Z,8.50
2022-10-23T08:23:13.872Z,7.75
2022-10-23T08:25:40.970Z,7.75
2022-10-23T08:28:08.046Z,6.00
2022-10-23T08:30:35.300Z,9.00
2022-10-23T08:33:06.870Z,9.00
2022-10-23T08:35:39.972Z,8.00
2022-10-23T08:38:07.006Z,8.25
2022-10-23T08:40:34.251Z,10.50
2022-10-23T08:43:29.120Z,11.00
2022-10-23T08:45:58.887Z,11.00
2022-10-23T08:48:38.441Z,9.50
2022-10-23T08:51:14.883Z,10.00
2022-10-23T08:53:53.469Z,9.75
2022-10-23T08:56:28.398Z,10.00
2022-10-23T08:59:05.666Z,10.00
2022-10-23T09:01:47.379Z,9.75
2022-10-23T09:04:14.661Z,9.00
2022-10-23T09:06:46.890Z,9.00
2022-10-23T09:09:32.722Z,9.00
2022-10-23T09:12:09.384Z,8.50
2022-10-23T09:14:41.002Z,9.25
2022-10-23T09:17:28.016Z,9.00
2022-10-23T09:20:13.672Z,9.75
2022-10-23T09:22:41.109Z,8.00
2022-10-23T09:25:21.233Z,8.00
2022-10-23T09:27:56.705Z,8.00
2022-10-23T09:30:34.717Z,8.00
2022-10-23T09:33:01.894Z,7.25
2022-10-23T09:35:29.962Z,9.00
2022-10-23T09:37:57.077Z,7.00
2022-10-23T09:40:42.987Z,9.00
2022-10-23T09:43:17.887Z,8.25
2022-10-23T09:45:44.928Z,6.25
2022-10-23T09:48:16.952Z,8.00
2022-10-23T09:51:00.101Z,7.00
2022-10-23T09:53:39.097Z,7.75
2022-10-23T09:56:27.039Z,8.25
2022-10-23T09:59:14.331Z,8.00
2022-10-23T10:01:58.264Z,7.50
2022-10-23T10:04:33.371Z,8.00
2022-10-23T10:07:02.172Z,8.00
2022-10-23T10:09:29.152Z,7.00
2022-10-23T10:12:00.651Z,8.00
2022-10-23T10:14:52.293Z,8.25
2022-10-23T10:17:28.419Z,8.25
2022-10-23T10:20:14.273Z,7.25
2022-10-23T10:23:03.576Z,7.00
2022-10-23T10:25:33.361Z,6.50
2022-10-23T10:28:04.560Z,8.00
2022-10-23T10:30:59.286Z,7.00
2022-10-23T10:33:47.622Z,8.00
2022-10-23T10:36:35.719Z,6.00
2022-10-23T10:39:03.664Z,8.00
2022-10-23T10:41:52.890Z,8.00
2022-10-23T10:44:25.827Z,6.00
2022-10-23T10:47:26.987Z,7.50
2022-10-23T10:50:09.050Z,9.00
2022-10-23T10:52:45.323Z,7.25
2022-10-23T10:55:36.121Z,7.75
2022-10-23T10:58:14.964Z,6.75
2022-10-23T11:00:41.989Z,8.00
2022-10-23T11:04:01.595Z,7.00
2022-10-23T11:06:30.358Z,8.50
2022-10-23T11:09:19.399Z,8.00
2022-10-23T11:11:45.559Z,8.75
2022-10-23T11:14:17.081Z,5.50
2022-10-23T11:16:46.985Z,7.50
2022-10-23T11:19:36.764Z,8.25
2022-10-23T11:22:24.910Z,8.25
2022-10-23T11:24:58.434Z,8.00
2022-10-23T11:27:38.132Z,8.00
2022-10-23T11:30:19.565Z,9.00
2022-10-23T11:33:00.288Z,7.75
2022-10-23T11:35:44.157Z,8.00
2022-10-23T11:38:13.874Z,8.25
2022-10-23T11:40:48.515Z,9.00
2022-10-23T11:43:37.165Z,8.25
2022-10-23T11:46:35.349Z,8.50
2022-10-23T11:49:03.499Z,9.00
2022-10-23T11:51:40.282Z,8.00
2022-10-23T11:54:28.620Z,9.00
2022-10-23T11:57:02.429Z,9.00
2022-10-23T11:59:30.807Z,8.75
2022-10-23T12:01:59.890Z,6.25
2022-10-23T12:04:47.399Z,9.00
2022-10-23T12:07:24.938Z,7.50
2022-10-23T12:10:03.465Z,8.75
2022-10-23T12:12:41.174Z,7.50
2022-10-23T12:15:14.895Z,8.00
2022-10-23T12:17:42.922Z,8.00
2022-10-23T12:20:12.735Z,9.25
2022-10-23T12:22:51.414Z,8.00
2022-10-23T12:25:45.286Z,7.50
2022-10-23T12:28:50.691Z,9.00
2022-10-23T12:31:39.999Z,8.00
2022-10-23T12:34:14.471Z,8.00
2022-10-23T12:36:47.798Z,8.25
2022-10-23T12:39:36.708Z,7.50
2022-10-23T12:42:03.891Z,8.00
2022-10-23T12:44:30.950Z,7.25
2022-10-23T12:46:59.662Z,9.00
2022-10-23T12:49:28.144Z,7.00
2022-10-23T12:52:05.686Z,8.25
2022-10-23T12:54:33.794Z,8.50
2022-10-23T12:57:00.715Z,7.00
2022-10-23T12:59:32.705Z,9.25
2022-10-23T13:02:00.151Z,8.50
2022-10-23T13:04:27.214Z,8.50
2022-10-23T13:06:59.179Z,8.00
2022-10-23T13:09:42.486Z,8.00
2022-10-23T13:12:12.288Z,9.00
2022-10-23T13:14:43.719Z,8.00
2022-10-23T13:17:11.899Z,9.00
2022-10-23T13:19:38.905Z,8.00
2022-10-23T13:22:22.010Z,8.50
2022-10-23T13:24:48.956Z,7.25
2022-10-23T13:27:35.056Z,8.00
2022-10-23T13:30:03.202Z,7.25
2022-10-23T13:32:32.042Z,7.00
2022-10-23T13:35:20.446Z,8.00
2022-10-23T13:37:48.681Z,8.00
2022-10-23T13:40:26.446Z,7.00
2022-10-23T13:42:54.617Z,7.00
2022-10-23T13:45:25.597Z,7.00
2022-10-23T13:47:52.583Z,9.00
2022-10-23T13:53:30.735Z,8.00
2022-10-23T14:46:32.634Z,13.50
2022-10-23T14:49:02.318Z,15.50
2022-10-23T14:51:30.866Z,14.00
2022-10-23T14:54:02.170Z,14.00
2022-10-23T14:56:29.608Z,15.00
2022-10-23T14:59:02.969Z,15.75
2022-10-23T15:01:34.299Z,14.25
2022-10-23T15:04:01.494Z,14.00
2022-10-23T15:06:28.527Z,15.25
2022-10-23T15:08:56.070Z,14.75
2022-10-23T15:11:26.342Z,12.75
2022-10-23T15:13:54.895Z,14.00
2022-10-23T15:16:22.426Z,16.25
2022-10-23T15:18:49.345Z,14.50
2022-10-23T15:21:16.428Z,16.75
2022-10-23T15:23:44.593Z,15.50
2022-10-23T15:26:21.985Z,16.00
2022-10-23T15:29:00.194Z,19.00
2022-10-23T15:31:29.866Z,16.25
2022-10-23T15:33:57.605Z,20.00
2022-10-23T15:36:24.498Z,16.25
2022-10-23T15:38:51.418Z,20.25
2022-10-23T15:41:22.617Z,21.00
2022-10-23T15:46:17.333Z,22.25
2022-10-23T15:48:44.274Z,24.25
2022-10-23T15:51:11.202Z,21.75
2022-10-23T15:53:57.228Z,22.25
2022-10-23T15:56:24.809Z,22.25
2022-10-23T15:58:51.741Z,23.00
2022-10-23T16:01:18.868Z,23.25
2022-10-23T16:03:45.984Z,22.25
2022-10-23T16:06:14.092Z,22.00
2022-10-23T16:08:41.064Z,21.50
2022-10-23T16:11:21.941Z,22.00
2022-10-23T16:13:49.002Z,20.25
2022-10-23T16:16:16.465Z,22.25
2022-10-23T16:18:44.366Z,20.50
2022-10-23T16:21:32.023Z,21.25
2022-10-23T16:23:59.907Z,20.50
2022-10-23T16:26:27.576Z,22.25
2022-10-23T16:28:55.380Z,21.50
2022-10-23T16:31:23.460Z,20.75
2022-10-23T16:33:50.609Z,22.25
2022-10-23T16:36:17.640Z,23.50
2022-10-23T16:38:44.573Z,22.25
2022-10-23T16:41:11.455Z,22.00
2022-10-23T16:43:38.507Z,24.00
2022-10-23T16:46:18.709Z,24.00
2022-10-23T16:48:45.723Z,22.25
2022-10-23T16:51:14.499Z,30.00
2022-10-23T16:53:41.836Z,26.25
2022-10-23T16:56:09.622Z,28.50
2022-10-23T16:58:36.767Z,28.75
2022-10-23T17:01:08.420Z,28.00
2022-10-23T17:03:39.934Z,29.00
2022-10-23T17:06:08.948Z,28.00
2022-10-23T17:08:38.145Z,27.25
2022-10-23T17:11:05.000Z,28.50
2022-10-23T17:13:39.746Z,24.25
2022-10-23T17:16:13.071Z,28.75
2022-10-23T17:18:43.670Z,28.75
2022-10-23T17:21:11.941Z,29.25
2022-10-23T17:23:38.871Z,29.00
2022-10-23T17:26:09.745Z,29.00
2022-10-23T17:28:41.916Z,28.25
2022-10-23T17:31:23.329Z,29.00
2022-10-23T17:33:52.348Z,30.00
2022-10-23T17:36:19.710Z,29.00
2022-10-23T17:38:46.649Z,27.50
2022-10-23T17:41:15.545Z,29.00
2022-10-23T17:43:42.672Z,29.00
2022-10-23T17:46:10.117Z,28.00
2022-10-23T17:48:37.170Z,28.50
2022-10-23T17:51:09.274Z,27.50
2022-10-23T17:53:36.915Z,28.00
2022-10-23T17:56:05.301Z,28.75
2022-10-23T17:58:32.490Z,28.00
2022-10-23T18:01:09.573Z,28.50
2022-10-23T18:03:36.841Z,28.00
2022-10-23T18:06:24.595Z,29.00
2022-10-23T18:08:54.684Z,27.75
2022-10-23T18:11:24.243Z,27.00
2022-10-23T18:13:51.907Z,26.00
2022-10-23T18:16:19.094Z,27.00
2022-10-23T18:18:48.412Z,28.75
2022-10-23T18:21:16.286Z,27.00
2022-10-23T18:23:44.228Z,27.00
2022-10-23T18:26:24.984Z,27.00
2022-10-23T18:28:53.143Z,25.00
2022-10-23T18:31:20.297Z,24.00
2022-10-23T18:33:47.361Z,27.00
2022-10-23T18:36:16.001Z,27.50
2022-10-23T18:38:43.156Z,26.75
2022-10-23T18:41:10.323Z,25.50
2022-10-23T18:43:43.771Z,26.75
2022-10-23T18:46:14.132Z,27.00
2022-10-23T18:48:41.599Z,25.25
2022-10-23T18:51:22.072Z,26.50
2022-10-23T18:53:49.117Z,23.50
2022-10-23T18:56:16.517Z,25.00
2022-10-23T18:58:43.493Z,25.00
2022-10-23T19:01:29.558Z,27.00
2022-10-23T19:03:57.879Z,25.25
2022-10-23T19:06:25.120Z,25.25
2022-10-23T19:08:52.169Z,22.00
2022-10-23T19:11:20.218Z,24.00
2022-10-23T19:13:47.278Z,24.75
2022-10-23T19:16:17.611Z,24.00
2022-10-23T19:18:47.348Z,24.25
2022-10-23T19:21:15.164Z,24.50
2022-10-23T19:23:42.135Z,23.25
2022-10-23T19:26:12.169Z,22.75
2022-10-23T19:28:41.385Z,24.50
2022-10-23T19:31:08.606Z,23.75
2022-10-23T19:33:36.334Z,23.00
2022-10-23T19:36:05.509Z,23.75
2022-10-23T19:38:34.464Z,23.75
2022-10-23T19:41:02.028Z,23.00
2022-10-23T19:43:29.020Z,23.00
2022-10-23T19:45:55.923Z,24.00
2022-10-23T19:48:22.894Z,23.00
2022-10-23T19:50:49.876Z,23.00
2022-10-23T19:53:17.146Z,23.00
2022-10-23T19:55:44.240Z,24.00
2022-10-23T19:58:11.271Z,23.75
2022-10-23T20:00:38.175Z,22.75
2022-10-23T20:03:05.228Z,24.00
2022-10-23T20:05:32.209Z,23.00
2022-10-23T20:07:59.158Z,23.75
2022-10-23T20:10:26.154Z,24.00
2022-10-23T20:12:57.015Z,24.00
2022-10-23T20:15:40.353Z,23.00
2022-10-23T20:18:07.316Z,22.75
2022-10-23T20:20:34.258Z,23.00
2022-10-23T20:23:01.233Z,22.00
2022-10-23T20:25:28.173Z,23.00
2022-10-23T20:27:55.353Z,23.00
2022-10-23T20:30:22.323Z,23.50
2022-10-23T20:32:49.221Z,24.00
2022-10-23T20:35:16.249Z,24.00
2022-10-23T20:37:43.391Z,24.00
2022-10-23T20:40:10.832Z,16.00
2022-10-23T20:42:37.771Z,22.75
2022-10-23T20:45:05.221Z,23.75
2022-10-23T20:47:32.144Z,24.00
2022-10-23T20:49:59.071Z,24.00
2022-10-23T20:52:27.784Z,23.25
2022-10-23T20:54:54.723Z,24.00
2022-10-23T20:57:21.612Z,23.00
2022-10-23T20:59:48.523Z,24.00
2022-10-23T21:02:15.479Z,23.00
2022-10-23T21:04:42.541Z,24.00
2022-10-23T21:07:11.158Z,24.00
2022-10-23T21:09:39.239Z,24.00
2022-10-23T21:12:06.891Z,23.50
2022-10-23T21:14:34.279Z,24.00
2022-10-23T21:17:01.296Z,23.75
2022-10-23T21:19:28.275Z,23.00
2022-10-23T21:21:55.304Z,23.00
2022-10-23T21:24:22.550Z,23.00
2022-10-23T21:26:49.530Z,24.00
2022-10-23T21:29:19.159Z,22.75
2022-10-23T21:31:55.186Z,24.00
2022-10-23T21:34:23.566Z,23.00
2022-10-23T21:39:38.505Z,22.75
2022-10-23T21:42:05.614Z,23.75
2022-10-23T21:44:32.572Z,23.00
2022-10-23T21:46:59.498Z,23.00
2022-10-23T21:49:26.850Z,22.25
2022-10-23T21:51:55.263Z,23.50
2022-10-23T21:54:22.329Z,21.00
2022-10-23T21:56:51.393Z,23.00
2022-10-23T21:59:19.977Z,23.00
2022-10-23T22:01:47.646Z,21.00
2022-10-23T22:04:15.645Z,21.25
2022-10-23T22:06:42.763Z,23.00
2022-10-23T22:09:11.216Z,24.00
2022-10-23T22:11:38.272Z,23.00
2022-10-23T22:14:05.191Z,21.75
2022-10-23T22:16:32.229Z,23.00
2022-10-23T22:18:59.273Z,23.00
2022-10-23T22:21:27.582Z,23.50
2022-10-23T22:23:55.608Z,22.50
2022-10-23T22:26:28.463Z,20.00
2022-10-23T22:28:56.930Z,23.00
2022-10-23T22:31:25.492Z,23.00
2022-10-23T22:33:52.734Z,23.00
2022-10-23T22:36:19.674Z,20.00
2022-10-23T22:38:46.732Z,23.00
2022-10-23T22:41:13.850Z,22.00
2022-10-23T22:43:40.798Z,15.75
2022-10-23T22:46:08.523Z,21.50
2022-10-23T22:48:36.012Z,22.75
2022-10-23T22:51:03.324Z,23.00
2022-10-23T22:53:30.238Z,21.00
2022-10-23T22:55:57.198Z,23.50
2022-10-23T22:58:25.126Z,21.75
2022-10-23T23:00:53.074Z,23.00
2022-10-23T23:03:20.073Z,21.00
2022-10-23T23:05:47.808Z,21.00
2022-10-23T23:08:14.968Z,21.00
2022-10-23T23:10:41.862Z,21.50
2022-10-23T23:13:08.798Z,21.00
2022-10-23T23:15:40.485Z,21.00
2022-10-23T23:18:07.444Z,21.75
2022-10-23T23:20:34.850Z,21.00
2022-10-23T23:23:01.912Z,22.50
2022-10-23T23:25:28.801Z,21.25
2022-10-23T23:27:55.736Z,23.00
2022-10-23T23:30:22.768Z,21.00
2022-10-23T23:32:51.381Z,20.00
2022-10-23T23:35:19.525Z,19.50
2022-10-23T23:37:46.856Z,22.00
2022-10-23T23:40:13.983Z,21.00
2022-10-23T23:42:40.898Z,20.50
2022-10-23T23:45:14.792Z,21.25
2022-10-23T23:47:42.338Z,21.00
2022-10-23T23:50:10.286Z,21.00
2022-10-23T23:52:37.246Z,20.75
2022-10-23T23:55:04.426Z,20.50
2022-10-23T23:57:31.303Z,21.75
2022-10-23T23:59:58.223Z,20.25
